createdAt,value
2019-04-30T00:03:46.085Z,99616.16
2019-04-30T00:07:54.194Z,99608.70
2019-04-30T00:12:01.012Z,99597.72
2019-04-30T00:16:02.098Z,99599.06
2019-04-30T00:20:06.664Z,99593.34
2019-04-30T00:24:10.930Z,99588.95
2019-04-30T00:28:15.495Z,99580.63
2019-04-30T00:32:19.978Z,99575.36
2019-04-30T00:36:28.966Z,99567.46
2019-04-30T00:40:30.345Z,99561.33
2019-04-30T00:44:35.677Z,99555.19
2019-04-30T00:48:39.924Z,99556.05
2019-04-30T00:52:45.749Z,99556.92
2019-04-30T00:56:50.083Z,99552.11
2019-04-30T01:01:08.168Z,99549.92
2019-04-30T01:05:16.084Z,99550.37
2019-04-30T01:09:20.544Z,99545.09
2019-04-30T01:13:24.794Z,99549.91
2019-04-30T01:17:30.005Z,99547.72
2019-04-30T01:21:34.395Z,99542.05
2019-04-30T01:25:38.927Z,99543.80
2019-04-30T01:29:44.360Z,99545.52
2019-04-30T01:33:49.014Z,99535.89
2019-04-30T01:37:53.531Z,99526.23
2019-04-30T01:41:58.677Z,99533.70
2019-04-30T01:46:12.162Z,99526.23
2019-04-30T01:50:10.139Z,99530.17
2019-04-30T01:54:21.143Z,99529.30
2019-04-30T01:58:30.209Z,99533.67
2019-04-30T02:02:36.194Z,99520.96
2019-04-30T02:06:40.460Z,99529.30
2019-04-30T02:10:44.704Z,99527.97
2019-04-30T02:14:49.466Z,99519.64
2019-04-30T02:18:55.124Z,99520.96
2019-04-30T02:22:59.440Z,99520.96
2019-04-30T02:27:03.940Z,99521.85
2019-04-30T02:31:09.239Z,99512.64
2019-04-30T02:35:35.997Z,99510.88
2019-04-30T02:39:40.520Z,99520.05
2019-04-30T02:43:45.685Z,99517.86
2019-04-30T02:47:50.256Z,99510.41
2019-04-30T02:51:56.457Z,99507.35
2019-04-30T02:56:03.732Z,99506.02
2019-04-30T03:00:16.073Z,99501.17
2019-04-30T03:04:20.355Z,99485.40
2019-04-30T03:08:24.578Z,99484.96
2019-04-30T03:12:33.197Z,99490.20
2019-04-30T03:16:52.670Z,99485.36
2019-04-30T03:21:02.520Z,99490.63
2019-04-30T03:25:09.334Z,99482.27
2019-04-30T03:29:12.892Z,99477.00
2019-04-30T03:33:17.120Z,99468.25
2019-04-30T03:37:21.378Z,99463.88
2019-04-30T03:41:25.651Z,99462.12
2019-04-30T03:45:30.243Z,99463.85
2019-04-30T03:49:34.619Z,99463.83
2019-04-30T03:53:42.400Z,99459.48
2019-04-30T03:57:44.838Z,99456.39
2019-04-30T04:02:12.199Z,99451.59
2019-04-30T04:06:24.445Z,99461.20
2019-04-30T04:10:50.206Z,99453.77
2019-04-30T04:14:53.661Z,99466.01
2019-04-30T04:18:59.478Z,99464.69
2019-04-30T04:23:04.151Z,99458.14
2019-04-30T04:27:09.663Z,99455.53
2019-04-30T04:31:14.097Z,99450.71
2019-04-30T04:35:19.792Z,99449.83
2019-04-30T04:39:24.259Z,99451.59
2019-04-30T04:43:30.057Z,99445.00
2019-04-30T04:47:34.534Z,99446.75
2019-04-30T04:51:42.212Z,99450.70
2019-04-30T04:55:45.184Z,99446.77
2019-04-30T04:59:50.122Z,99445.00
2019-04-30T05:03:54.583Z,99440.62
2019-04-30T05:07:58.951Z,99434.91
2019-04-30T05:12:03.197Z,99441.05
2019-04-30T05:16:09.219Z,99440.14
2019-04-30T05:20:13.759Z,99441.04
2019-04-30T05:24:19.055Z,99434.92
2019-04-30T05:28:23.385Z,99431.41
2019-04-30T05:32:29.221Z,99439.73
2019-04-30T05:36:33.660Z,99438.42
2019-04-30T05:40:39.844Z,99431.39
2019-04-30T05:44:43.950Z,99435.77
2019-04-30T05:48:49.515Z,99437.52
2019-04-30T05:52:53.843Z,99432.70
2019-04-30T05:56:59.394Z,99440.11
2019-04-30T06:01:03.746Z,99436.16
2019-04-30T06:05:08.842Z,99436.62
2019-04-30T06:09:31.108Z,99437.50
2019-04-30T06:13:31.936Z,99438.79
2019-04-30T06:17:35.968Z,99430.94
2019-04-30T06:21:40.265Z,99437.05
2019-04-30T06:25:56.407Z,99431.36
2019-04-30T06:29:51.220Z,99429.59
2019-04-30T06:33:55.503Z,99430.50
2019-04-30T06:37:59.893Z,99426.14
2019-04-30T06:42:08.903Z,99430.94
2019-04-30T06:46:11.519Z,99437.52
2019-04-30T06:50:16.410Z,99429.19
2019-04-30T06:54:21.069Z,99430.52
2019-04-30T06:58:25.328Z,99436.64
2019-04-30T07:02:30.865Z,99428.80
2019-04-30T07:06:37.130Z,99425.30
2019-04-30T07:10:53.035Z,99435.81
2019-04-30T07:14:49.443Z,99424.45
2019-04-30T07:18:53.730Z,99430.59
2019-04-30T07:23:02.566Z,99430.57
2019-04-30T07:27:04.206Z,99432.78
2019-04-30T07:31:14.118Z,99430.59
2019-04-30T07:35:14.974Z,99429.27
2019-04-30T07:39:19.339Z,99429.70
2019-04-30T07:43:23.614Z,99415.27
2019-04-30T07:47:29.628Z,99425.33
2019-04-30T07:51:38.059Z,99423.15
2019-04-30T07:55:39.956Z,99429.73
2019-04-30T07:59:44.613Z,99427.11
2019-04-30T08:04:08.872Z,99437.19
2019-04-30T08:08:20.905Z,99432.36
2019-04-30T08:12:25.942Z,99431.94
2019-04-30T08:16:25.202Z,99431.06
2019-04-30T08:20:29.592Z,99430.63
2019-04-30T08:24:33.957Z,99430.63
2019-04-30T08:28:38.705Z,99430.63
2019-04-30T08:32:43.116Z,99425.41
2019-04-30T08:36:48.932Z,99425.38
2019-04-30T08:40:58.115Z,99422.77
2019-04-30T08:44:59.740Z,99424.96
2019-04-30T08:49:04.078Z,99425.39
2019-04-30T08:53:10.460Z,99424.08
2019-04-30T08:57:14.393Z,99420.14
2019-04-30T09:01:19.607Z,99423.63
2019-04-30T09:05:31.587Z,99426.26
2019-04-30T09:09:35.835Z,99431.97
2019-04-30T09:13:40.511Z,99428.94
2019-04-30T09:17:58.152Z,99435.94
2019-04-30T09:21:51.149Z,99432.86
2019-04-30T09:26:04.496Z,99436.80
2019-04-30T09:30:10.436Z,99441.17
2019-04-30T09:34:18.014Z,99439.00
2019-04-30T09:38:20.648Z,99428.48
2019-04-30T09:42:24.879Z,99433.71
2019-04-30T09:46:29.982Z,99433.30
2019-04-30T09:50:34.832Z,99434.61
2019-04-30T09:54:39.964Z,99431.53
2019-04-30T09:58:44.560Z,99422.33
2019-04-30T10:02:49.020Z,99419.70
2019-04-30T10:06:53.569Z,99425.38
2019-04-30T10:11:20.063Z,99425.38
2019-04-30T10:15:51.116Z,99420.98
2019-04-30T10:19:55.309Z,99424.93
2019-04-30T10:24:12.349Z,99419.22
2019-04-30T10:28:06.213Z,99420.08
2019-04-30T10:32:11.502Z,99418.77
2019-04-30T10:36:15.778Z,99411.33
2019-04-30T10:40:20.710Z,99406.95
2019-04-30T10:44:24.972Z,99420.98
2019-04-30T10:48:29.434Z,99395.53
2019-04-30T10:52:33.673Z,99395.98
2019-04-30T10:56:38.216Z,99405.61
2019-04-30T11:00:42.886Z,99395.04
2019-04-30T11:04:47.414Z,99395.04
2019-04-30T11:08:51.689Z,99387.14
2019-04-30T11:12:56.021Z,99380.10
2019-04-30T11:17:00.846Z,99377.47
2019-04-30T11:21:05.786Z,99373.94
2019-04-30T11:25:10.812Z,99366.94
2019-04-30T11:29:15.352Z,99366.89
2019-04-30T11:33:19.999Z,99364.25
2019-04-30T11:37:24.391Z,99374.78
2019-04-30T11:41:32.940Z,99369.50
2019-04-30T11:46:18.690Z,99370.77
2019-04-30T11:50:23.360Z,99376.03
2019-04-30T11:54:29.712Z,99371.62
2019-04-30T11:58:33.735Z,99377.33
2019-04-30T12:02:43.775Z,99384.32
2019-04-30T12:06:48.046Z,99385.64
2019-04-30T12:11:04.635Z,99393.08
2019-04-30T12:15:09.379Z,99400.98
2019-04-30T12:19:13.769Z,99399.20
2019-04-30T12:23:18.996Z,99400.96
2019-04-30T12:27:23.698Z,99418.03
2019-04-30T12:31:29.737Z,99403.94
2019-04-30T12:35:34.115Z,99406.56
2019-04-30T12:39:39.480Z,99392.45
2019-04-30T12:43:43.907Z,99396.38
2019-04-30T12:47:52.557Z,99391.02
2019-04-30T12:52:05.111Z,99391.02
2019-04-30T12:56:34.474Z,99384.84
2019-04-30T13:00:39.235Z,99383.44
2019-04-30T13:04:43.485Z,99368.87
2019-04-30T13:08:51.521Z,99370.95
2019-04-30T13:12:54.257Z,99365.64
2019-04-30T13:16:59.059Z,99366.89
2019-04-30T13:21:03.471Z,99383.13
2019-04-30T13:25:09.286Z,99395.42
2019-04-30T13:29:18.585Z,99393.28
2019-04-30T13:33:35.335Z,99393.28
2019-04-30T13:37:48.918Z,99392.41
2019-04-30T13:41:59.226Z,99385.77
2019-04-30T13:46:03.459Z,99373.83
2019-04-30T13:50:09.340Z,99372.03
2019-04-30T13:54:13.738Z,99371.53
2019-04-30T13:58:18.068Z,99371.06
2019-04-30T14:02:22.282Z,99361.34
2019-04-30T14:06:28.944Z,99364.42
2019-04-30T14:10:39.282Z,99372.77
2019-04-30T14:14:43.626Z,99388.61
2019-04-30T14:18:48.762Z,99396.48
2019-04-30T14:22:53.295Z,99391.64
2019-04-30T14:26:59.064Z,99393.37
2019-04-30T14:31:04.059Z,99399.92
2019-04-30T14:35:09.155Z,99405.66
2019-04-30T14:39:16.992Z,99407.86
2019-04-30T14:43:25.777Z,99407.45
2019-04-30T14:47:50.686Z,99399.55
2019-04-30T14:51:55.398Z,99398.73
2019-04-30T14:56:19.256Z,99403.62
2019-04-30T15:00:36.108Z,99400.54
2019-04-30T15:04:40.362Z,99401.39
2019-04-30T15:08:44.615Z,99419.86
2019-04-30T15:12:48.840Z,99411.48
2019-04-30T15:16:53.756Z,99413.25
2019-04-30T15:20:59.502Z,99405.35
2019-04-30T15:25:03.864Z,99409.31
2019-04-30T15:29:12.381Z,99396.97
2019-04-30T15:33:36.349Z,99400.45
2019-04-30T15:37:42.272Z,99397.33
2019-04-30T15:41:46.625Z,99393.80
2019-04-30T15:45:50.955Z,99395.95
2019-04-30T15:49:55.216Z,99388.95
2019-04-30T15:53:59.610Z,99394.65
2019-04-30T15:58:10.139Z,99390.66
2019-04-30T16:02:22.483Z,99385.34
2019-04-30T16:06:28.475Z,99396.75
2019-04-30T16:11:10.256Z,99405.58
2019-04-30T16:15:13.401Z,99398.96
2019-04-30T16:19:19.536Z,99399.79
2019-04-30T16:23:24.241Z,99384.72
2019-04-30T16:27:29.069Z,99380.56
2019-04-30T16:31:33.455Z,99371.17
2019-04-30T16:35:38.686Z,99371.67
2019-04-30T16:39:42.996Z,99367.34
2019-04-30T16:43:48.798Z,99367.40
2019-04-30T16:47:53.565Z,99368.75
2019-04-30T16:52:01.258Z,99375.45
2019-04-30T16:56:04.197Z,99367.94
2019-04-30T17:00:10.932Z,99370.16
2019-04-30T17:04:29.351Z,99362.18
2019-04-30T17:08:52.110Z,99363.09
2019-04-30T17:13:18.948Z,99359.54
2019-04-30T17:17:23.406Z,99361.30
2019-04-30T17:21:29.647Z,99366.20
2019-04-30T17:25:34.062Z,99372.34
2019-04-30T17:29:38.319Z,99369.24
2019-04-30T17:33:42.544Z,99386.38
2019-04-30T17:37:46.925Z,99385.91
2019-04-30T17:41:51.321Z,99396.45
2019-04-30T17:45:55.947Z,99401.77
2019-04-30T17:50:00.678Z,99421.67
2019-04-30T17:54:14.632Z,99420.38
2019-04-30T17:58:20.611Z,99427.39
2019-04-30T18:02:39.208Z,99431.32
2019-04-30T18:06:43.162Z,99442.38
2019-04-30T18:10:47.684Z,99437.53
2019-04-30T18:14:52.352Z,99442.83
2019-04-30T18:19:06.198Z,99434.46
2019-04-30T18:23:41.584Z,99440.16
2019-04-30T18:27:53.349Z,99448.08
2019-04-30T18:31:59.851Z,99450.28
2019-04-30T18:36:04.019Z,99455.56
2019-04-30T18:40:09.584Z,99478.02
2019-04-30T18:44:14.522Z,99496.98
2019-04-30T18:48:19.498Z,99505.86
2019-04-30T18:52:24.217Z,99496.14
2019-04-30T18:56:29.015Z,99498.73
2019-04-30T19:00:44.008Z,99491.67
2019-04-30T19:04:49.550Z,99496.13
2019-04-30T19:09:04.308Z,99499.23
2019-04-30T19:13:29.904Z,99509.80
2019-04-30T19:17:52.328Z,99515.95
2019-04-30T19:21:58.593Z,99510.70
2019-04-30T19:26:02.655Z,99518.23
2019-04-30T19:30:09.293Z,99509.87
2019-04-30T19:34:13.831Z,99511.19
2019-04-30T19:38:18.198Z,99506.81
2019-04-30T19:42:23.186Z,99501.10
2019-04-30T19:46:29.452Z,99511.24
2019-04-30T19:50:34.660Z,99509.02
2019-04-30T19:54:39.396Z,99516.47
2019-04-30T19:58:55.472Z,99510.33
2019-04-30T20:02:49.956Z,99507.69
2019-04-30T20:06:54.964Z,99504.16
2019-04-30T20:10:59.499Z,99507.22
2019-04-30T20:15:15.946Z,99508.12
2019-04-30T20:19:09.919Z,99510.29
2019-04-30T20:23:14.328Z,99511.16
2019-04-30T20:27:19.127Z,99509.84
2019-04-30T20:31:23.464Z,99501.52
2019-04-30T20:35:28.093Z,99505.48
2019-04-30T20:39:41.902Z,99506.80
2019-04-30T20:43:46.427Z,99507.22
2019-04-30T20:47:51.079Z,99501.95
2019-04-30T20:51:58.846Z,99503.71
2019-04-30T20:56:03.103Z,99496.66
2019-04-30T21:00:08.473Z,99501.94
2019-04-30T21:04:12.688Z,99502.38
2019-04-30T21:08:17.425Z,99505.87
2019-04-30T21:12:21.670Z,99505.86
2019-04-30T21:16:25.955Z,99506.71
2019-04-30T21:20:30.187Z,99497.92
2019-04-30T21:24:34.423Z,99500.95
2019-04-30T21:28:39.348Z,99507.54
2019-04-30T21:32:56.341Z,99500.47
2019-04-30T21:37:01.037Z,99495.62
2019-04-30T21:41:05.252Z,99493.84
2019-04-30T21:45:09.533Z,99491.22
2019-04-30T21:49:13.818Z,99498.67
2019-04-30T21:53:19.566Z,99504.86
2019-04-30T21:57:24.695Z,99495.17
2019-04-30T22:01:33.293Z,99496.03
2019-04-30T22:05:39.127Z,99488.55
2019-04-30T22:09:43.380Z,99485.91
2019-04-30T22:13:48.969Z,99482.84
2019-04-30T22:17:53.979Z,99490.75
2019-04-30T22:21:59.463Z,99497.35
2019-04-30T22:26:03.773Z,99493.39
2019-04-30T22:30:08.603Z,99492.98
2019-04-30T22:34:12.904Z,99497.35
2019-04-30T22:38:20.508Z,99500.42
2019-04-30T22:42:33.903Z,99501.28
2019-04-30T22:46:39.368Z,99500.41
2019-04-30T22:50:43.790Z,99496.45
2019-04-30T22:54:48.205Z,99494.69
2019-04-30T22:58:52.468Z,99492.91
2019-04-30T23:02:59.830Z,99490.71
2019-04-30T23:07:04.385Z,99489.84
2019-04-30T23:11:08.935Z,99487.20
2019-04-30T23:15:15.150Z,99482.81
2019-04-30T23:19:19.434Z,99485.47
2019-04-30T23:23:23.691Z,99478.95
2019-04-30T23:27:27.967Z,99483.37
2019-04-30T23:31:32.205Z,99474.56
2019-04-30T23:35:36.466Z,99469.77
2019-04-30T23:39:40.684Z,99479.95
2019-04-30T23:43:44.934Z,99481.31
2019-04-30T23:47:49.212Z,99481.37
2019-04-30T23:51:53.457Z,99484.03
2019-04-30T23:55:58.715Z,99483.64
